createdAt,value
2022-09-15T00:00:49.705Z,41.75
2022-09-15T00:03:19.087Z,31.00
2022-09-15T00:05:46.899Z,34.13
2022-09-15T00:08:14.733Z,36.85
2022-09-15T00:10:48.819Z,30.52
2022-09-15T00:13:16.547Z,34.90
2022-09-15T00:15:44.135Z,40.72
2022-09-15T00:18:12.145Z,36.38
2022-09-15T00:20:43.176Z,36.22
2022-09-15T00:23:12.008Z,40.53
2022-09-15T00:25:44.200Z,43.83
2022-09-15T00:28:11.644Z,45.03
2022-09-15T00:30:42.373Z,39.22
2022-09-15T00:33:10.063Z,36.38
2022-09-15T00:35:39.739Z,32.25
2022-09-15T00:38:10.274Z,30.65
2022-09-15T00:40:44.999Z,32.42
2022-09-15T00:43:14.218Z,31.45
2022-09-15T00:45:42.085Z,27.83
2022-09-15T00:48:13.423Z,30.63
2022-09-15T00:50:44.017Z,33.38
2022-09-15T00:53:15.140Z,33.45
2022-09-15T00:55:47.313Z,35.65
2022-09-15T00:58:19.821Z,29.17
2022-09-15T01:00:53.161Z,30.33
2022-09-15T01:03:20.689Z,27.85
2022-09-15T01:05:53.720Z,27.00
2022-09-15T01:08:30.274Z,28.02
2022-09-15T01:10:58.520Z,25.52
2022-09-15T01:13:26.799Z,29.48
2022-09-15T01:16:03.681Z,30.73
2022-09-15T01:18:40.898Z,38.13
2022-09-15T01:21:22.913Z,33.20
2022-09-15T01:24:35.563Z,26.73
2022-09-15T01:27:40.383Z,30.27
2022-09-15T01:30:09.561Z,25.08
2022-09-15T01:33:06.582Z,30.35
2022-09-15T01:35:45.562Z,32.05
2022-09-15T01:38:21.799Z,33.88
2022-09-15T01:40:53.866Z,35.10
2022-09-15T01:43:24.746Z,41.40
2022-09-15T01:45:54.174Z,51.53
2022-09-15T01:48:25.335Z,46.55
2022-09-15T01:50:56.856Z,55.80
2022-09-15T01:53:25.458Z,53.40
2022-09-15T01:55:57.328Z,48.60
2022-09-15T01:58:24.830Z,56.67
2022-09-15T02:00:59.605Z,56.72
2022-09-15T02:03:33.626Z,52.67
2022-09-15T02:06:05.036Z,52.65
2022-09-15T02:08:39.084Z,56.42
2022-09-15T02:11:15.398Z,53.25
2022-09-15T02:13:48.804Z,55.25
2022-09-15T02:16:21.948Z,48.78
2022-09-15T02:19:12.231Z,60.03
2022-09-15T02:21:53.898Z,58.13
2022-09-15T02:24:27.890Z,62.00
2022-09-15T02:26:56.089Z,54.90
2022-09-15T02:29:27.194Z,47.50
2022-09-15T02:32:03.719Z,49.88
2022-09-15T02:34:36.865Z,47.85
2022-09-15T02:37:05.997Z,50.35
2022-09-15T02:39:37.286Z,42.92
2022-09-15T02:42:05.167Z,39.50
2022-09-15T02:44:32.997Z,35.70
2022-09-15T02:47:02.535Z,42.90
2022-09-15T02:49:30.036Z,42.17
2022-09-15T02:51:57.488Z,39.72
2022-09-15T02:54:25.005Z,44.90
2022-09-15T02:56:52.427Z,52.67
2022-09-15T02:59:19.853Z,46.28
2022-09-15T03:01:47.361Z,41.28
2022-09-15T03:04:16.204Z,38.38
2022-09-15T03:06:43.868Z,38.28
2022-09-15T03:09:12.465Z,33.00
2022-09-15T03:11:39.879Z,33.03
2022-09-15T03:14:08.158Z,42.50
2022-09-15T03:16:36.773Z,37.63
2022-09-15T03:19:05.632Z,39.33
2022-09-15T03:21:34.769Z,35.85
2022-09-15T03:24:02.608Z,36.47
2022-09-15T03:26:30.992Z,29.58
2022-09-15T03:28:58.413Z,32.08
2022-09-15T03:31:25.883Z,32.22
2022-09-15T03:33:55.960Z,28.40
2022-09-15T03:36:23.402Z,32.97
2022-09-15T03:38:52.627Z,37.92
2022-09-15T03:41:20.166Z,35.63
2022-09-15T03:43:47.627Z,32.60
2022-09-15T03:46:15.170Z,31.00
2022-09-15T03:48:42.943Z,35.75
2022-09-15T03:51:11.419Z,33.67
2022-09-15T03:53:40.633Z,30.38
2022-09-15T03:56:11.930Z,30.85
2022-09-15T03:58:39.546Z,32.65
2022-09-15T04:01:07.062Z,29.58
2022-09-15T04:03:37.474Z,29.65
2022-09-15T04:06:08.204Z,37.65
2022-09-15T04:08:35.631Z,35.20
2022-09-15T04:11:05.670Z,39.47
2022-09-15T04:13:35.107Z,34.60
2022-09-15T04:16:04.253Z,35.10
2022-09-15T04:18:33.084Z,34.40
2022-09-15T04:21:01.573Z,41.80
2022-09-15T04:23:29.331Z,36.47
2022-09-15T04:25:57.652Z,38.65
2022-09-15T04:28:25.895Z,36.83
2022-09-15T04:30:55.336Z,41.35
2022-09-15T04:33:23.033Z,48.10
2022-09-15T04:35:50.451Z,54.33
2022-09-15T04:38:17.880Z,62.05
2022-09-15T04:40:45.353Z,64.97
2022-09-15T04:43:12.787Z,66.53
2022-09-15T04:45:40.893Z,68.15
2022-09-15T04:48:09.727Z,69.40
2022-09-15T04:50:37.170Z,73.28
2022-09-15T04:53:04.650Z,73.55
2022-09-15T04:55:32.974Z,69.50
2022-09-15T04:58:00.487Z,71.03
2022-09-15T05:00:27.920Z,70.47
2022-09-15T05:02:55.421Z,66.75
2022-09-15T05:05:25.101Z,66.50
2022-09-15T05:07:52.991Z,72.00
2022-09-15T05:10:21.145Z,55.42
2022-09-15T05:12:48.591Z,65.57
2022-09-15T05:15:16.255Z,71.35
2022-09-15T05:17:43.693Z,65.65
2022-09-15T05:20:11.148Z,74.95
2022-09-15T05:22:41.994Z,67.10
2022-09-15T05:25:10.148Z,68.32
2022-09-15T05:27:39.216Z,85.45
2022-09-15T05:30:34.961Z,76.22
2022-09-15T05:32:56.156Z,73.18
2022-09-15T05:35:24.470Z,72.03
2022-09-15T05:37:53.244Z,64.25
2022-09-15T05:40:22.122Z,56.22
2022-09-15T05:42:49.619Z,40.85
2022-09-15T05:45:17.232Z,40.53
2022-09-15T05:47:44.687Z,40.22
2022-09-15T05:50:12.224Z,46.00
2022-09-15T05:52:40.091Z,41.20
2022-09-15T05:55:10.004Z,42.38
2022-09-15T05:57:37.445Z,33.38
2022-09-15T06:00:05.898Z,47.20
2022-09-15T06:02:33.536Z,42.05
2022-09-15T06:05:01.056Z,45.05
2022-09-15T06:07:28.499Z,50.33
2022-09-15T06:09:56.156Z,50.70
2022-09-15T06:12:25.037Z,46.05
2022-09-15T06:14:53.116Z,46.50
2022-09-15T06:17:20.781Z,45.55
2022-09-15T06:19:48.216Z,42.08
2022-09-15T06:22:15.901Z,43.53
2022-09-15T06:24:43.345Z,46.58
2022-09-15T06:27:10.790Z,44.85
2022-09-15T06:29:39.554Z,48.47
2022-09-15T06:32:07.132Z,46.90
2022-09-15T06:34:34.623Z,51.88
2022-09-15T06:37:02.072Z,46.35
2022-09-15T06:39:29.544Z,49.00
2022-09-15T06:42:02.724Z,50.08
2022-09-15T06:44:31.629Z,45.15
2022-09-15T06:47:00.411Z,52.78
2022-09-15T06:49:28.842Z,46.20
2022-09-15T06:51:56.403Z,45.97
2022-09-15T06:54:23.969Z,45.17
2022-09-15T06:56:51.491Z,40.92
2022-09-15T06:59:18.985Z,40.28
2022-09-15T07:01:46.550Z,43.65
2022-09-15T07:04:15.471Z,44.83
2022-09-15T07:06:42.900Z,48.47
2022-09-15T07:09:11.915Z,47.72
2022-09-15T07:11:39.376Z,52.80
2022-09-15T07:14:07.409Z,54.83
2022-09-15T07:16:34.982Z,57.58
2022-09-15T07:19:03.701Z,58.53
2022-09-15T07:21:32.663Z,46.40
2022-09-15T07:24:03.881Z,45.47
2022-09-15T07:26:34.747Z,50.55
2022-09-15T07:29:03.805Z,51.10
2022-09-15T07:31:33.285Z,49.47
2022-09-15T07:34:02.157Z,51.58
2022-09-15T07:36:29.910Z,44.15
2022-09-15T07:38:58.890Z,53.97
2022-09-15T07:41:28.611Z,48.05
2022-09-15T07:43:57.707Z,52.17
2022-09-15T07:46:26.894Z,55.38
2022-09-15T07:48:56.242Z,49.80
2022-09-15T07:51:23.976Z,44.15
2022-09-15T07:53:52.563Z,73.28
2022-09-15T07:56:22.317Z,47.97
2022-09-15T07:58:50.885Z,44.13
2022-09-15T08:01:19.646Z,42.05
2022-09-15T08:03:49.421Z,41.60
2022-09-15T08:06:18.036Z,41.63
2022-09-15T08:08:45.519Z,38.65
2022-09-15T08:11:18.855Z,40.67
2022-09-15T08:13:49.320Z,39.92
2022-09-15T08:16:20.110Z,38.85
2022-09-15T08:18:48.121Z,37.55
2022-09-15T08:21:17.444Z,36.05
2022-09-15T08:23:45.479Z,37.40
2022-09-15T08:26:14.574Z,34.08
2022-09-15T08:28:42.906Z,37.35
2022-09-15T08:31:13.742Z,36.03
2022-09-15T08:33:45.456Z,33.47
2022-09-15T08:36:13.860Z,26.85
2022-09-15T08:38:42.848Z,28.10
2022-09-15T08:41:15.401Z,35.15
2022-09-15T08:43:47.461Z,32.28
2022-09-15T08:46:22.707Z,33.90
2022-09-15T08:49:03.121Z,37.10
2022-09-15T08:51:37.032Z,45.13
2022-09-15T08:54:12.233Z,40.17
2022-09-15T08:56:42.269Z,49.78
2022-09-15T08:59:13.315Z,59.85
2022-09-15T09:01:55.212Z,56.05
2022-09-15T09:04:36.660Z,51.58
2022-09-15T09:07:19.480Z,59.83
2022-09-15T09:09:53.557Z,50.33
2022-09-15T09:12:33.380Z,49.15
2022-09-15T09:15:15.041Z,27.08
2022-09-15T09:18:05.148Z,46.08
2022-09-15T09:20:42.241Z,38.83
2022-09-15T09:23:15.316Z,37.72
2022-09-15T09:25:44.410Z,39.50
2022-09-15T09:28:24.663Z,20.08
2022-09-15T09:30:52.371Z,32.85
2022-09-15T09:33:30.326Z,42.80
2022-09-15T09:36:02.163Z,45.15
2022-09-15T09:38:33.281Z,42.75
2022-09-15T09:41:02.582Z,33.80
2022-09-15T09:43:31.527Z,45.47
2022-09-15T09:45:59.639Z,45.90
2022-09-15T09:48:30.423Z,49.53
2022-09-15T09:50:57.944Z,50.25
2022-09-15T09:53:30.899Z,40.25
2022-09-15T09:56:17.420Z,41.85
2022-09-15T09:58:46.018Z,45.30
2022-09-15T10:01:15.649Z,46.63
2022-09-15T10:03:45.228Z,63.65
2022-09-15T10:06:15.644Z,53.75
2022-09-15T10:08:54.959Z,51.38
2022-09-15T10:11:23.241Z,51.45
2022-09-15T10:13:53.429Z,43.58
2022-09-15T10:16:22.421Z,40.90
2022-09-15T10:18:54.391Z,30.65
2022-09-15T10:21:25.377Z,33.67
2022-09-15T10:23:53.076Z,27.08
2022-09-15T10:26:23.617Z,29.45
2022-09-15T10:29:12.223Z,25.13
2022-09-15T10:31:40.721Z,28.63
2022-09-15T10:34:31.472Z,33.50
2022-09-15T10:37:14.916Z,35.33
2022-09-15T10:39:52.565Z,39.40
2022-09-15T10:42:46.016Z,39.20
2022-09-15T10:45:19.806Z,36.00
2022-09-15T10:48:03.172Z,32.00
2022-09-15T10:50:41.228Z,32.33
2022-09-15T10:53:17.730Z,25.35
2022-09-15T10:55:56.062Z,29.90
2022-09-15T10:58:45.788Z,42.08
2022-09-15T11:01:45.535Z,31.83
2022-09-15T11:04:31.245Z,24.88
2022-09-15T11:07:06.449Z,35.35
2022-09-15T11:09:37.491Z,27.92
2022-09-15T11:12:17.727Z,22.30
2022-09-15T11:14:55.960Z,37.40
2022-09-15T11:17:36.341Z,37.50
2022-09-15T11:20:24.472Z,28.65
2022-09-15T11:22:59.863Z,25.13
2022-09-15T11:25:31.394Z,33.42
2022-09-15T11:28:04.482Z,31.98
2022-09-15T11:30:36.863Z,33.63
2022-09-15T11:33:10.116Z,39.25
2022-09-15T11:35:45.805Z,47.40
2022-09-15T11:38:24.190Z,24.30
2022-09-15T11:40:57.892Z,39.00
2022-09-15T11:43:33.413Z,33.85
2022-09-15T11:46:07.155Z,44.15
2022-09-15T11:48:40.958Z,38.85
2022-09-15T11:51:09.183Z,34.53
2022-09-15T11:53:42.013Z,50.53
2022-09-15T11:56:22.351Z,22.58
2022-09-15T11:59:06.233Z,12.50
2022-09-15T12:01:40.937Z,32.33
2022-09-15T12:04:13.837Z,16.35
2022-09-15T12:06:47.267Z,18.45
2022-09-15T12:09:18.510Z,34.88
2022-09-15T12:11:48.508Z,32.65
2022-09-15T12:14:20.107Z,30.73
2022-09-15T12:16:47.835Z,30.02
2022-09-15T12:19:23.995Z,32.85
2022-09-15T12:21:58.819Z,32.03
2022-09-15T12:24:37.243Z,21.77
2022-09-15T12:27:05.453Z,30.00
2022-09-15T12:29:41.900Z,19.88
2022-09-15T12:32:20.064Z,30.27
2022-09-15T12:34:59.134Z,35.20
2022-09-15T12:37:30.583Z,33.28
2022-09-15T12:39:59.450Z,33.53
2022-09-15T12:42:31.200Z,21.33
2022-09-15T12:45:01.191Z,32.95
2022-09-15T12:47:34.984Z,34.78
2022-09-15T12:50:09.788Z,37.33
2022-09-15T12:52:45.752Z,31.95
2022-09-15T12:55:21.839Z,24.13
2022-09-15T12:57:53.608Z,33.95
2022-09-15T13:00:33.630Z,22.02
2022-09-15T13:03:02.440Z,21.58
2022-09-15T13:05:53.492Z,24.17
2022-09-15T13:08:46.636Z,24.13
2022-09-15T13:11:18.567Z,31.55
2022-09-15T13:13:50.679Z,30.15
2022-09-15T13:16:25.451Z,33.42
2022-09-15T13:19:05.302Z,40.58
2022-09-15T13:21:35.779Z,46.95
2022-09-15T13:24:08.031Z,39.13
2022-09-15T13:26:38.044Z,37.47
2022-09-15T13:29:07.306Z,43.15
2022-09-15T13:31:44.901Z,45.83
2022-09-15T13:40:42.916Z,27.58
2022-09-15T13:43:40.844Z,29.15
2022-09-15T13:46:20.766Z,24.48
2022-09-15T13:48:58.805Z,33.95
2022-09-15T13:51:29.020Z,30.13
2022-09-15T13:54:00.133Z,30.73
2022-09-15T13:56:31.011Z,29.30
2022-09-15T13:59:08.083Z,24.30
2022-09-15T14:01:40.205Z,23.35
2022-09-15T14:04:12.724Z,37.63
2022-09-15T14:06:43.122Z,24.65
2022-09-15T14:09:15.477Z,21.42
2022-09-15T14:11:44.343Z,21.65
2022-09-15T14:14:32.031Z,27.23
2022-09-15T14:16:59.558Z,23.45
2022-09-15T14:19:33.610Z,23.67
2022-09-15T14:22:02.317Z,24.85
2022-09-15T14:24:31.763Z,37.10
2022-09-15T14:27:03.332Z,45.22
2022-09-15T14:29:32.252Z,40.28
2022-09-15T14:32:03.699Z,37.45
2022-09-15T14:34:35.925Z,35.03
2022-09-15T14:37:08.141Z,26.55
2022-09-15T14:39:37.535Z,51.15
2022-09-15T14:42:20.333Z,39.40
2022-09-15T14:47:40.072Z,43.45
2022-09-15T14:50:09.690Z,36.10
2022-09-15T14:52:41.445Z,31.00
2022-09-15T14:55:15.447Z,36.70
2022-09-15T14:57:49.756Z,39.17
2022-09-15T15:00:22.410Z,42.28
2022-09-15T15:03:00.950Z,20.92
2022-09-15T15:05:34.212Z,25.33
2022-09-15T15:08:04.612Z,24.48
2022-09-15T15:10:35.865Z,26.67
2022-09-15T15:13:07.977Z,29.50
2022-09-15T15:15:39.048Z,40.33
2022-09-15T15:18:31.594Z,22.83
2022-09-15T15:21:00.121Z,34.92
2022-09-15T15:23:28.638Z,19.85
2022-09-15T15:26:26.863Z,25.13
2022-09-15T15:28:54.409Z,31.48
2022-09-15T15:31:25.747Z,23.90
2022-09-15T15:33:55.810Z,30.92
2022-09-15T15:36:25.004Z,38.35
2022-09-15T15:38:54.518Z,27.95
2022-09-15T15:41:24.896Z,31.52
2022-09-15T15:44:02.967Z,32.00
2022-09-15T15:46:50.288Z,41.53
2022-09-15T15:49:18.647Z,25.27
2022-09-15T15:51:46.359Z,28.52
2022-09-15T15:54:14.432Z,43.45
2022-09-15T15:56:42.742Z,43.33
2022-09-15T15:59:13.084Z,20.45
2022-09-15T16:01:40.668Z,22.42
2022-09-15T16:04:12.132Z,26.45
2022-09-15T16:06:40.147Z,32.08
2022-09-15T16:09:07.951Z,40.08
2022-09-15T16:11:35.580Z,45.05
2022-09-15T16:14:03.103Z,39.53
2022-09-15T16:16:30.665Z,33.70
2022-09-15T16:18:58.211Z,36.28
2022-09-15T16:21:32.168Z,46.85
2022-09-15T16:23:59.631Z,32.08
2022-09-15T16:26:27.141Z,36.28
2022-09-15T16:28:54.715Z,28.02
2022-09-15T16:31:22.194Z,23.20
2022-09-15T16:33:49.675Z,23.00
2022-09-15T16:36:18.467Z,27.58
2022-09-15T16:38:47.301Z,23.00
2022-09-15T16:41:17.269Z,23.60
2022-09-15T16:43:45.744Z,25.17
2022-09-15T16:46:14.928Z,20.25
2022-09-15T16:48:47.003Z,19.70
2022-09-15T16:51:26.741Z,15.73
2022-09-15T16:53:57.480Z,16.48
2022-09-15T16:56:24.985Z,20.13
2022-09-15T16:58:58.767Z,24.05
2022-09-15T17:01:27.597Z,20.67
2022-09-15T17:03:55.789Z,24.27
2022-09-15T17:06:23.408Z,20.60
2022-09-15T17:08:50.896Z,27.10
2022-09-15T17:11:23.728Z,22.55
2022-09-15T17:13:51.212Z,20.90
2022-09-15T17:16:20.276Z,43.45
2022-09-15T17:18:48.982Z,45.40
2022-09-15T17:21:18.341Z,36.00
2022-09-15T17:23:47.802Z,22.95
2022-09-15T17:26:19.446Z,24.10
2022-09-15T17:28:48.803Z,28.70
2022-09-15T17:31:18.234Z,22.88
2022-09-15T17:33:46.473Z,51.03
2022-09-15T17:36:14.863Z,47.80
2022-09-15T17:38:42.642Z,40.80
2022-09-15T17:41:14.513Z,35.72
2022-09-15T17:43:41.974Z,61.03
2022-09-15T17:46:10.806Z,42.58
2022-09-15T17:48:38.990Z,45.10
2022-09-15T17:51:07.056Z,44.35
2022-09-15T17:53:34.603Z,53.80
2022-09-15T17:56:02.361Z,35.80
2022-09-15T17:58:31.359Z,44.80
2022-09-15T18:00:59.486Z,44.63
2022-09-15T18:03:31.057Z,50.50
2022-09-15T18:06:00.668Z,49.97
2022-09-15T18:08:28.751Z,41.50
2022-09-15T18:10:56.600Z,51.67
2022-09-15T18:13:26.827Z,39.67
2022-09-15T18:15:54.890Z,35.25
2022-09-15T18:18:24.834Z,63.55
2022-09-15T18:20:55.181Z,42.53
2022-09-15T18:23:24.807Z,35.60
2022-09-15T18:25:52.948Z,35.47
2022-09-15T18:28:20.693Z,37.17
2022-09-15T18:30:50.111Z,37.63
2022-09-15T18:33:19.721Z,44.97
2022-09-15T18:35:48.330Z,43.75
2022-09-15T18:38:17.384Z,33.75
2022-09-15T18:40:46.660Z,39.35
2022-09-15T18:43:14.135Z,39.75
2022-09-15T18:45:42.404Z,42.70
2022-09-15T18:48:12.780Z,38.03
2022-09-15T18:50:41.958Z,49.20
2022-09-15T18:53:09.937Z,49.53
2022-09-15T18:55:41.353Z,45.78
2022-09-15T18:58:09.161Z,28.38
2022-09-15T19:00:36.711Z,48.67
2022-09-15T19:03:06.151Z,48.42
2022-09-15T19:05:34.144Z,39.42
2022-09-15T19:08:02.757Z,44.90
2022-09-15T19:10:31.133Z,25.75
2022-09-15T19:13:00.055Z,44.72
2022-09-15T19:15:29.160Z,41.35
2022-09-15T19:17:56.637Z,42.75
2022-09-15T19:20:24.075Z,40.65
2022-09-15T19:22:51.672Z,41.42
2022-09-15T19:25:19.731Z,56.33
2022-09-15T19:27:47.841Z,56.42
2022-09-15T19:30:16.699Z,53.92
2022-09-15T19:32:44.192Z,51.47
2022-09-15T19:35:11.720Z,41.55
2022-09-15T19:37:41.374Z,33.22
2022-09-15T19:40:11.816Z,62.50
2022-09-15T19:42:39.828Z,56.13
2022-09-15T19:45:08.973Z,28.17
2022-09-15T19:47:38.120Z,37.33
2022-09-15T19:50:07.934Z,25.45
2022-09-15T19:52:35.407Z,45.22
2022-09-15T19:55:03.080Z,28.85
2022-09-15T19:57:30.591Z,35.05
2022-09-15T19:59:58.028Z,35.42
2022-09-15T20:02:25.617Z,48.70
2022-09-15T20:04:55.013Z,57.90
2022-09-15T20:07:22.532Z,38.70
2022-09-15T20:09:52.778Z,65.47
2022-09-15T20:14:53.180Z,35.20
2022-09-15T20:17:20.684Z,38.78
2022-09-15T20:19:48.281Z,52.10
2022-09-15T20:22:17.076Z,51.60
2022-09-15T20:24:44.536Z,55.00
2022-09-15T20:27:11.996Z,47.65
2022-09-15T20:29:40.152Z,28.30
2022-09-15T20:32:07.824Z,52.25
2022-09-15T20:34:35.293Z,23.75
2022-09-15T20:37:02.740Z,33.70
2022-09-15T20:39:31.551Z,40.83
2022-09-15T20:41:59.056Z,28.95
2022-09-15T20:44:26.965Z,28.05
2022-09-15T20:46:54.816Z,47.67
2022-09-15T20:49:22.320Z,34.35
2022-09-15T20:51:51.523Z,41.75
2022-09-15T20:54:19.013Z,28.05
2022-09-15T20:56:47.868Z,27.85
2022-09-15T20:59:15.666Z,56.65
2022-09-15T21:01:43.410Z,66.18
2022-09-15T21:04:11.708Z,70.57
2022-09-15T21:06:39.814Z,62.95
2022-09-15T21:09:07.463Z,61.85
2022-09-15T21:11:35.076Z,49.17
2022-09-15T21:14:04.324Z,43.70
2022-09-15T21:16:33.670Z,39.10
2022-09-15T21:19:01.444Z,39.33
2022-09-15T21:21:30.965Z,42.20
2022-09-15T21:24:01.103Z,43.40
2022-09-15T21:26:30.266Z,63.25
2022-09-15T21:28:58.158Z,38.00
2022-09-15T21:31:29.212Z,38.47
2022-09-15T21:33:57.795Z,42.15
2022-09-15T21:36:27.483Z,39.97
2022-09-15T21:38:57.100Z,46.22
2022-09-15T21:41:26.114Z,24.35
2022-09-15T21:43:55.256Z,40.22
2022-09-15T21:46:24.911Z,34.63
2022-09-15T21:48:54.228Z,64.82
2022-09-15T21:51:24.925Z,42.50
2022-09-15T21:53:53.578Z,71.50
2022-09-15T21:56:21.834Z,76.20
2022-09-15T21:58:49.928Z,67.93
2022-09-15T22:01:19.907Z,50.60
2022-09-15T22:03:50.575Z,64.63
2022-09-15T22:06:21.404Z,56.38
2022-09-15T22:08:48.928Z,42.25
2022-09-15T22:11:16.453Z,47.75
2022-09-15T22:13:44.793Z,67.68
2022-09-15T22:16:14.481Z,55.33
2022-09-15T22:18:42.579Z,42.70
2022-09-15T22:21:12.663Z,48.95
2022-09-15T22:23:41.983Z,45.80
2022-09-15T22:26:11.904Z,43.17
2022-09-15T22:28:39.915Z,53.78
2022-09-15T22:31:09.963Z,32.25
2022-09-15T22:33:38.522Z,65.15
2022-09-15T22:36:06.876Z,27.48
2022-09-15T22:38:34.429Z,63.67
2022-09-15T22:41:06.658Z,60.25
2022-09-15T22:43:34.206Z,66.75
2022-09-15T22:46:01.905Z,51.00
2022-09-15T22:48:29.591Z,52.70
2022-09-15T22:50:57.186Z,54.72
2022-09-15T22:53:25.309Z,42.63
2022-09-15T22:55:54.163Z,58.17
2022-09-15T22:58:23.018Z,58.72
2022-09-15T23:00:50.551Z,42.42
2022-09-15T23:03:18.057Z,42.65
2022-09-15T23:05:45.552Z,75.22
2022-09-15T23:08:13.430Z,55.80
2022-09-15T23:10:40.903Z,31.55
2022-09-15T23:13:08.511Z,67.30
2022-09-15T23:15:37.672Z,50.45
2022-09-15T23:18:05.149Z,44.90
2022-09-15T23:20:32.741Z,60.47
2022-09-15T23:23:00.551Z,74.50
2022-09-15T23:25:28.028Z,58.45
2022-09-15T23:27:55.510Z,56.95
2022-09-15T23:30:22.980Z,56.35
2022-09-15T23:32:51.817Z,93.80
2022-09-15T23:35:19.295Z,59.83
2022-09-15T23:37:46.795Z,55.92
2022-09-15T23:40:14.678Z,58.45
2022-09-15T23:42:42.175Z,63.00
2022-09-15T23:45:10.412Z,69.05
2022-09-15T23:47:37.884Z,54.30
2022-09-15T23:50:07.528Z,50.40
2022-09-15T23:52:35.027Z,45.95
2022-09-15T23:55:02.529Z,67.32
2022-09-15T23:57:30.007Z,59.38
2022-09-15T23:59:57.493Z,56.67
